Mary Ann Moran — WDF4572 — position and weather

sailwx.info

Track history (hours):
 
Tides and Currents Weather Stations Pressure Air Temp Water Temp Dewpoint Dewpoint Depression Visibility Wind Speed Wind Dir Waves Ship Positions

Mary Ann Moran

More information available from US FCC via Universal Licensing System and Coast Guard Vessel Documentation Center.

Last reported at 2014-Jul-04 03:33 UTC. Time now 2014-Jul-24 15:25 UTC.
Position N 27°36' W 082°58'.
Warning: this ship's position is 20 days out of date.

Length 170 m; draft 5 m.

Type: Tow > 200 m length. MMSI: 367453420.

Date/timePositionNaut miles runAvg speedWind from/ knotsBaromVisibWave heightAir tempDewpointWater temp
2014-Jul-04 03:33N 27°36' W 082°58'1010.5
2014-Jul-04 02:33N 27°37' W 082°46'10 9.7
2014-Jul-04 01:33N 27°40' W 082°36'10 9.8
2014-Jul-04 00:33N 27°48' W 082°29'8 8.0
2014-Jul-03 23:33N 27°55' W 082°27'2 1.5
2014-Jul-03 22:29N 27°57' W 082°27'0 0.0
2014-Jul-03 21:32N 27°57' W 082°27'0 0.0
2014-Jul-03 20:32N 27°57' W 082°27'0 0.0
2014-Jul-03 19:32N 27°57' W 082°27'0 0.0
2014-Jul-03 18:32N 27°57' W 082°27'0 0.0
2014-Jul-03 17:32N 27°57' W 082°27'0 0.0
2014-Jul-03 16:32N 27°57' W 082°27'0 0.0
2014-Jul-03 15:32N 27°57' W 082°27'0 0.0
2014-Jul-03 14:32N 27°57' W 082°27'0 0.0
2014-Jul-03 13:32N 27°57' W 082°27'0 0.0
2014-Jul-03 12:32N 27°57' W 082°27'0 0.0
2014-Jul-03 11:29N 27°57' W 082°27'0 0.0
2014-Jul-03 10:32N 27°57' W 082°27'0 0.0
2014-Jul-03 09:32N 27°57' W 082°27'0 0.0
2014-Jul-03 08:32N 27°57' W 082°27'0 0.0
2014-Jul-03 07:32N 27°57' W 082°27'0 0.0
2014-Jul-03 06:32N 27°57' W 082°27'0 0.0
2014-Jul-03 05:32N 27°57' W 082°27'0 0.0
2014-Jul-03 04:32N 27°57' W 082°27'0 0.0
2014-Jul-03 03:32N 27°57' W 082°27'0 0.0
2014-Jul-03 02:32N 27°57' W 082°27'0 0.0
2014-Jul-03 01:32N 27°57' W 082°27'0 0.0
2014-Jul-03 00:32N 27°57' W 082°27'0 0.0
2014-Jul-02 23:32N 27°57' W 082°27'0 0.0
2014-Jul-02 22:32N 27°57' W 082°27'0 0.0
2014-Jul-02 21:32N 27°57' W 082°27'0 0.0
2014-Jul-02 20:32N 27°57' W 082°27'0 0.0
2014-Jul-02 19:32N 27°57' W 082°27'0 0.0
2014-Jul-02 18:32N 27°57' W 082°27'0 0.0
2014-Jul-02 17:32N 27°57' W 082°27'0 0.0
2014-Jul-02 16:32N 27°57' W 082°27'0 0.0
2014-Jul-02 15:32N 27°57' W 082°27'0 0.0
2014-Jul-02 14:32N 27°57' W 082°27'0 0.0
2014-Jul-02 13:32N 27°57' W 082°27'0 0.0
2014-Jul-02 12:32N 27°57' W 082°27'0 0.0
2014-Jul-02 11:32N 27°57' W 082°27'0 0.0
2014-Jul-02 10:32N 27°57' W 082°27'0 0.0
2014-Jul-02 09:32N 27°57' W 082°27'0 0.0
2014-Jul-02 08:32N 27°57' W 082°27'0 0.0
2014-Jul-02 07:32N 27°57' W 082°27'0 0.0
2014-Jul-02 06:32N 27°57' W 082°27'0 0.0
2014-Jul-02 05:32N 27°57' W 082°27'0 0.0
2014-Jul-02 04:32N 27°57' W 082°27'0 0.0
2014-Jul-02 03:32N 27°57' W 082°27'0 0.0
2014-Jul-02 02:32N 27°57' W 082°27'0 0.0
2014-Jul-02 01:32N 27°57' W 082°27'0 0.0
2014-Jul-02 00:32N 27°57' W 082°27'0 0.0
2014-Jul-01 23:32N 27°57' W 082°27'0 0.0
2014-Jul-01 22:32N 27°57' W 082°27'0 0.0
2014-Jul-01 21:32N 27°57' W 082°27'0 0.0
2014-Jul-01 20:32N 27°57' W 082°27'0 0.0
2014-Jul-01 19:32N 27°57' W 082°27'0 0.0
2014-Jul-01 18:32N 27°57' W 082°27'0 0.0
2014-Jul-01 17:32N 27°57' W 082°27'0 0.0
2014-Jul-01 16:32N 27°57' W 082°27'0 0.0
2014-Jul-01 15:33N 27°57' W 082°27'2 2.5
2014-Jul-01 14:33N 27°55' W 082°26'8 8.1
2014-Jul-01 13:33N 27°47' W 082°31'9 8.7
2014-Jul-01 12:33N 27°40' W 082°36'9 8.7
2014-Jul-01 11:33N 27°36' W 082°45'9 9.3
2014-Jul-01 10:33N 27°36' W 082°55'  
2014-Jun-27 08:09N 29°36' W 089°52'  
Track history (hours):
 
Tides and Currents Weather Stations Pressure Air Temp Water Temp Dewpoint Dewpoint Depression Visibility Wind Speed Wind Dir Waves Ship Positions

Mary Ann Moran

More information available from US FCC via Universal Licensing System and Coast Guard Vessel Documentation Center.

Last reported at 2014-Jul-04 03:33 UTC. Time now 2014-Jul-24 15:25 UTC.
Position N 27°36' W 082°58'.
Warning: this ship's position is 20 days out of date.

Length 170 m; draft 5 m.

Type: Tow > 200 m length. MMSI: 367453420.

Date/timePositionNaut miles runAvg speedWind from/ knotsBaromVisibWave heightAir tempDewpointWater temp
2014-Jul-04 03:33N 27°36' W 082°58'1010.5
2014-Jul-04 02:33N 27°37' W 082°46'10 9.7
2014-Jul-04 01:33N 27°40' W 082°36'10 9.8
2014-Jul-04 00:33N 27°48' W 082°29'8 8.0
2014-Jul-03 23:33N 27°55' W 082°27'2 1.5
2014-Jul-03 22:29N 27°57' W 082°27'0 0.0
2014-Jul-03 21:32N 27°57' W 082°27'0 0.0
2014-Jul-03 20:32N 27°57' W 082°27'0 0.0
2014-Jul-03 19:32N 27°57' W 082°27'0 0.0
2014-Jul-03 18:32N 27°57' W 082°27'0 0.0
2014-Jul-03 17:32N 27°57' W 082°27'0 0.0
2014-Jul-03 16:32N 27°57' W 082°27'0 0.0
2014-Jul-03 15:32N 27°57' W 082°27'0 0.0
2014-Jul-03 14:32N 27°57' W 082°27'0 0.0
2014-Jul-03 13:32N 27°57' W 082°27'0 0.0
2014-Jul-03 12:32N 27°57' W 082°27'0 0.0
2014-Jul-03 11:29N 27°57' W 082°27'0 0.0
2014-Jul-03 10:32N 27°57' W 082°27'0 0.0
2014-Jul-03 09:32N 27°57' W 082°27'0 0.0
2014-Jul-03 08:32N 27°57' W 082°27'0 0.0
2014-Jul-03 07:32N 27°57' W 082°27'0 0.0
2014-Jul-03 06:32N 27°57' W 082°27'0 0.0
2014-Jul-03 05:32N 27°57' W 082°27'0 0.0
2014-Jul-03 04:32N 27°57' W 082°27'0 0.0
2014-Jul-03 03:32N 27°57' W 082°27'0 0.0
2014-Jul-03 02:32N 27°57' W 082°27'0 0.0
2014-Jul-03 01:32N 27°57' W 082°27'0 0.0
2014-Jul-03 00:32N 27°57' W 082°27'0 0.0
2014-Jul-02 23:32N 27°57' W 082°27'0 0.0
2014-Jul-02 22:32N 27°57' W 082°27'0 0.0
2014-Jul-02 21:32N 27°57' W 082°27'0 0.0
2014-Jul-02 20:32N 27°57' W 082°27'0 0.0
2014-Jul-02 19:32N 27°57' W 082°27'0 0.0
2014-Jul-02 18:32N 27°57' W 082°27'0 0.0
2014-Jul-02 17:32N 27°57' W 082°27'0 0.0
2014-Jul-02 16:32N 27°57' W 082°27'0 0.0
2014-Jul-02 15:32N 27°57' W 082°27'0 0.0
2014-Jul-02 14:32N 27°57' W 082°27'0 0.0
2014-Jul-02 13:32N 27°57' W 082°27'0 0.0
2014-Jul-02 12:32N 27°57' W 082°27'0 0.0
2014-Jul-02 11:32N 27°57' W 082°27'0 0.0
2014-Jul-02 10:32N 27°57' W 082°27'0 0.0
2014-Jul-02 09:32N 27°57' W 082°27'0 0.0
2014-Jul-02 08:32N 27°57' W 082°27'0 0.0
2014-Jul-02 07:32N 27°57' W 082°27'0 0.0
2014-Jul-02 06:32N 27°57' W 082°27'0 0.0
2014-Jul-02 05:32N 27°57' W 082°27'0 0.0
2014-Jul-02 04:32N 27°57' W 082°27'0 0.0
2014-Jul-02 03:32N 27°57' W 082°27'0 0.0
2014-Jul-02 02:32N 27°57' W 082°27'0 0.0
2014-Jul-02 01:32N 27°57' W 082°27'0 0.0
2014-Jul-02 00:32N 27°57' W 082°27'0 0.0
2014-Jul-01 23:32N 27°57' W 082°27'0 0.0
2014-Jul-01 22:32N 27°57' W 082°27'0 0.0
2014-Jul-01 21:32N 27°57' W 082°27'0 0.0
2014-Jul-01 20:32N 27°57' W 082°27'0 0.0
2014-Jul-01 19:32N 27°57' W 082°27'0 0.0
2014-Jul-01 18:32N 27°57' W 082°27'0 0.0
2014-Jul-01 17:32N 27°57' W 082°27'0 0.0
2014-Jul-01 16:32N 27°57' W 082°27'0 0.0
2014-Jul-01 15:33N 27°57' W 082°27'2 2.5
2014-Jul-01 14:33N 27°55' W 082°26'8 8.1
2014-Jul-01 13:33N 27°47' W 082°31'9 8.7
2014-Jul-01 12:33N 27°40' W 082°36'9 8.7
2014-Jul-01 11:33N 27°36' W 082°45'9 9.3
2014-Jul-01 10:33N 27°36' W 082°55'  
2014-Jun-27 08:09N 29°36' W 089°52'  

Dump ship's entire track history